Van Wert, Iowa
Current Conditions -  °F | °C
As of 12:15 PM on Thursday 29 Jan 2015 (Local Time) from KI75 Reporting Station
Overcast Overcast  
Wind Chill: 22°   Ceiling: 1700
Heat Index: 34°   Visibility: 10mi
Dew Point: 28°   Wind: 24mph
Humidity: 77%   Direction: 310°NW
Pressure: 30.28"   Gusts: 32mph
Location:  40.87°N, 93.79°W
Report Text: KI75 291815Z AUTO 31021G28KT 10SM OVC017 01/M02 A3028 RMK AO2 T00121024
Loading
Personal Weather Stations






























Interactive Weather Map New forecast layout! Learn more

10-Day Weather Forecast

Advertisements
Track Severe Weather on mobile